Time;durP1;ratioP1;P1;durP2;ratioP2;P2;SDS_P1;SDS_P2;PMS_P1;PMS_P2;Temp;Humidity;BMP_temperature;BMP_pressure;BME280_temperature;BME280_humidity;BME280_pressure;Samples;Min_cycle;Max_cycle;Signal;HPM_P1;HPM_P2
2021/04/26 00:01:34;;;;;;;1.60;1.50;;;;;;;19.37;41.47;100827.78;;;;-56
2021/04/26 00:04:34;;;;;;;1.61;1.46;;;;;;;19.35;41.43;100825.23;;;;-55
2021/04/26 00:07:34;;;;;;;1.50;1.40;;;;;;;19.34;41.43;100825.23;;;;-56
2021/04/26 00:10:34;;;;;;;1.60;1.50;;;;;;;19.33;41.47;100822.12;;;;-55
2021/04/26 00:13:34;;;;;;;1.67;1.50;;;;;;;19.32;41.44;100819.28;;;;-56
2021/04/26 00:16:34;;;;;;;1.45;1.35;;;;;;;19.31;41.49;100812.83;;;;-55
2021/04/26 00:19:34;;;;;;;1.40;1.30;;;;;;;19.30;41.47;100798.34;;;;-55
2021/04/26 00:22:34;;;;;;;1.53;1.39;;;;;;;19.29;41.45;100790.05;;;;-56
2021/04/26 00:25:34;;;;;;;1.55;1.37;;;;;;;19.28;41.45;100795.50;;;;-55
2021/04/26 00:28:34;;;;;;;1.47;1.37;;;;;;;19.27;41.42;100802.30;;;;-51
2021/04/26 00:31:34;;;;;;;1.49;1.39;;;;;;;19.25;41.47;100798.37;;;;-51
2021/04/26 00:34:34;;;;;;;1.43;1.33;;;;;;;19.24;41.48;100779.84;;;;-52
2021/04/26 00:37:34;;;;;;;1.60;1.50;;;;;;;19.24;41.43;100776.75;;;;-52
2021/04/26 00:40:34;;;;;;;1.49;1.39;;;;;;;19.23;41.47;100777.70;;;;-52
2021/04/26 00:43:34;;;;;;;2.35;1.36;;;;;;;19.22;41.49;100773.39;;;;-51
2021/04/26 00:46:34;;;;;;;1.52;1.42;;;;;;;19.20;41.45;100767.92;;;;-52
2021/04/26 00:49:34;;;;;;;1.57;1.45;;;;;;;19.20;41.50;100765.90;;;;-52
2021/04/26 00:52:34;;;;;;;1.52;1.42;;;;;;;19.18;41.46;100761.16;;;;-52
2021/04/26 00:55:34;;;;;;;1.50;1.40;;;;;;;19.18;41.48;100756.20;;;;-51
2021/04/26 00:58:34;;;;;;;1.50;1.40;;;;;;;19.17;41.51;100753.41;;;;-52
2021/04/26 01:01:34;;;;;;;1.61;1.41;;;;;;;19.16;41.51;100748.38;;;;-52
2021/04/26 01:04:34;;;;;;;1.63;1.44;;;;;;;19.14;41.48;100744.70;;;;-51
2021/04/26 01:07:35;;;;;;;1.45;1.34;;;;;;;19.14;41.48;100738.28;;;;-51
2021/04/26 01:10:34;;;;;;;1.51;1.40;;;;;;;19.14;41.52;100737.95;;;;-51
2021/04/26 01:13:34;;;;;;;1.50;1.40;;;;;;;19.12;41.54;100730.54;;;;-52
2021/04/26 01:16:34;;;;;;;1.68;1.33;;;;;;;19.12;41.55;100734.52;;;;-51
2021/04/26 01:19:34;;;;;;;1.47;1.37;;;;;;;19.11;41.52;100727.12;;;;-52
2021/04/26 01:22:34;;;;;;;1.50;1.40;;;;;;;19.10;41.49;100714.75;;;;-51
2021/04/26 01:27:34;;;;;;;1.48;1.38;;;;;;;19.08;41.51;100708.80;;;;-52
2021/04/26 01:32:34;;;;;;;1.51;1.41;;;;;;;19.07;41.52;100713.11;;;;-52
2021/04/26 01:35:34;;;;;;;1.53;1.43;;;;;;;19.06;41.51;100709.83;;;;-52
2021/04/26 01:38:34;;;;;;;1.30;1.20;;;;;;;19.06;41.52;100708.53;;;;-52
2021/04/26 01:41:34;;;;;;;1.47;1.37;;;;;;;19.04;41.56;100698.84;;;;-52
2021/04/26 01:44:34;;;;;;;1.51;1.41;;;;;;;19.03;41.52;100698.44;;;;-52
2021/04/26 01:47:34;;;;;;;1.55;1.45;;;;;;;19.02;41.49;100698.16;;;;-51
2021/04/26 01:50:34;;;;;;;1.56;1.29;;;;;;;19.02;41.53;100704.41;;;;-55
2021/04/26 01:53:34;;;;;;;1.41;1.31;;;;;;;19.01;41.49;100701.82;;;;-54
2021/04/26 01:56:34;;;;;;;1.43;1.32;;;;;;;19.02;41.50;100694.51;;;;-55
2021/04/26 01:59:34;;;;;;;1.51;1.41;;;;;;;19.00;41.51;100691.16;;;;-55
2021/04/26 02:02:34;;;;;;;1.50;1.40;;;;;;;18.98;41.50;100690.39;;;;-55
2021/04/26 02:05:34;;;;;;;1.63;1.40;;;;;;;18.98;41.51;100687.06;;;;-55
2021/04/26 02:08:34;;;;;;;2.10;1.34;;;;;;;18.97;41.50;100688.86;;;;-51
2021/04/26 02:11:34;;;;;;;1.31;1.21;;;;;;;18.96;41.51;100675.59;;;;-51
2021/04/26 02:14:34;;;;;;;1.44;1.34;;;;;;;18.96;41.56;100677.30;;;;-51
2021/04/26 02:17:34;;;;;;;1.50;1.40;;;;;;;18.94;41.52;100676.70;;;;-51
2021/04/26 02:20:34;;;;;;;1.40;1.30;;;;;;;18.93;41.50;100679.62;;;;-51
2021/04/26 02:23:34;;;;;;;1.46;1.36;;;;;;;18.93;41.47;100670.53;;;;-52
2021/04/26 02:26:34;;;;;;;1.40;1.30;;;;;;;18.93;41.53;100671.59;;;;-51
2021/04/26 02:29:34;;;;;;;1.48;1.38;;;;;;;18.92;41.45;100667.91;;;;-52
2021/04/26 02:32:34;;;;;;;1.50;1.40;;;;;;;18.92;41.47;100665.31;;;;-52
2021/04/26 02:35:34;;;;;;;1.49;1.39;;;;;;;18.91;41.48;100657.44;;;;-51
2021/04/26 02:38:34;;;;;;;1.40;1.30;;;;;;;18.90;41.47;100649.61;;;;-51
2021/04/26 02:41:34;;;;;;;1.87;1.49;;;;;;;18.90;41.46;100657.98;;;;-51
2021/04/26 02:44:34;;;;;;;1.53;1.43;;;;;;;18.89;41.48;100647.34;;;;-52
2021/04/26 02:47:34;;;;;;;1.50;1.40;;;;;;;18.88;41.48;100640.00;;;;-51
2021/04/26 02:50:34;;;;;;;1.47;1.37;;;;;;;18.87;41.51;100642.45;;;;-51
2021/04/26 02:53:34;;;;;;;1.39;1.29;;;;;;;18.87;41.48;100638.80;;;;-51
2021/04/26 02:56:34;;;;;;;1.51;1.41;;;;;;;18.86;41.49;100639.09;;;;-51
2021/04/26 02:59:34;;;;;;;1.40;1.30;;;;;;;18.85;41.51;100638.77;;;;-52
2021/04/26 03:02:34;;;;;;;1.45;1.35;;;;;;;18.85;41.51;100640.39;;;;-51
2021/04/26 03:05:34;;;;;;;1.50;1.40;;;;;;;18.84;41.51;100642.06;;;;-52
2021/04/26 03:08:34;;;;;;;1.47;1.37;;;;;;;18.83;41.50;100643.20;;;;-52
2021/04/26 03:11:34;;;;;;;1.39;1.29;;;;;;;18.83;41.51;100646.21;;;;-51
2021/04/26 03:14:34;;;;;;;1.40;1.30;;;;;;;18.83;41.53;100648.41;;;;-51
2021/04/26 03:17:34;;;;;;;1.51;1.41;;;;;;;18.82;41.51;100646.75;;;;-51
2021/04/26 03:20:34;;;;;;;1.50;1.40;;;;;;;18.81;41.54;100648.05;;;;-52
2021/04/26 03:23:34;;;;;;;1.40;1.30;;;;;;;18.81;41.55;100659.74;;;;-50
2021/04/26 03:26:34;;;;;;;2.69;1.40;;;;;;;18.80;41.54;100655.82;;;;-52
2021/04/26 03:29:34;;;;;;;1.51;1.41;;;;;;;18.80;41.56;100660.28;;;;-51
2021/04/26 03:32:34;;;;;;;1.50;1.40;;;;;;;18.79;41.55;100659.23;;;;-51
2021/04/26 03:35:34;;;;;;;1.40;1.30;;;;;;;18.78;41.57;100660.26;;;;-51
2021/04/26 03:38:34;;;;;;;1.42;1.30;;;;;;;18.77;41.55;100659.17;;;;-52
2021/04/26 03:41:34;;;;;;;1.37;1.27;;;;;;;18.77;41.55;100656.09;;;;-51
2021/04/26 03:44:34;;;;;;;1.60;1.50;;;;;;;18.76;41.57;100657.15;;;;-51
2021/04/26 03:47:34;;;;;;;1.50;1.40;;;;;;;18.75;41.56;100653.95;;;;-51
2021/04/26 03:50:34;;;;;;;1.69;1.30;;;;;;;18.75;41.59;100655.50;;;;-51
2021/04/26 03:53:34;;;;;;;1.71;1.31;;;;;;;18.74;41.56;100656.31;;;;-55
2021/04/26 03:56:34;;;;;;;1.33;1.25;;;;;;;18.74;41.54;100660.26;;;;-55
2021/04/26 03:59:34;;;;;;;1.49;1.39;;;;;;;18.72;41.53;100653.52;;;;-54
2021/04/26 04:02:34;;;;;;;1.33;1.23;;;;;;;18.72;41.53;100651.41;;;;-54
2021/04/26 04:05:34;;;;;;;1.55;1.40;;;;;;;18.73;41.57;100656.20;;;;-54
2021/04/26 04:08:34;;;;;;;1.40;1.30;;;;;;;18.71;41.54;100651.06;;;;-55
2021/04/26 04:11:34;;;;;;;1.50;1.40;;;;;;;18.71;41.58;100647.81;;;;-54
2021/04/26 04:14:34;;;;;;;1.51;1.41;;;;;;;18.70;41.61;100645.54;;;;-54
2021/04/26 04:17:34;;;;;;;1.49;1.39;;;;;;;18.70;41.61;100646.59;;;;-54
2021/04/26 04:20:34;;;;;;;1.40;1.30;;;;;;;18.69;41.59;100647.22;;;;-54
2021/04/26 04:23:34;;;;;;;1.40;1.30;;;;;;;18.68;41.59;100654.61;;;;-54
2021/04/26 04:26:34;;;;;;;1.67;1.33;;;;;;;18.68;41.63;100658.75;;;;-55
2021/04/26 04:29:34;;;;;;;1.35;1.25;;;;;;;18.67;41.61;100654.17;;;;-55
2021/04/26 04:32:34;;;;;;;1.51;1.41;;;;;;;18.68;41.69;100658.59;;;;-54
2021/04/26 04:35:34;;;;;;;1.33;1.21;;;;;;;18.67;41.64;100655.63;;;;-54
2021/04/26 04:38:34;;;;;;;1.43;1.31;;;;;;;18.67;41.62;100654.98;;;;-55
2021/04/26 04:41:34;;;;;;;1.37;1.27;;;;;;;18.66;41.61;100653.61;;;;-54
2021/04/26 04:44:34;;;;;;;1.50;1.40;;;;;;;18.65;41.55;100654.88;;;;-52
2021/04/26 04:47:34;;;;;;;1.50;1.40;;;;;;;18.64;41.61;100648.06;;;;-52
2021/04/26 04:50:34;;;;;;;1.43;1.33;;;;;;;18.65;41.61;100645.47;;;;-52
2021/04/26 04:53:34;;;;;;;1.40;1.30;;;;;;;18.64;41.58;100645.71;;;;-52
2021/04/26 04:56:34;;;;;;;1.47;1.37;;;;;;;18.63;41.58;100641.30;;;;-51
2021/04/26 04:59:34;;;;;;;1.38;1.28;;;;;;;18.63;41.55;100642.84;;;;-52
2021/04/26 05:02:34;;;;;;;1.82;1.30;;;;;;;18.63;41.74;100647.95;;;;-61
2021/04/26 05:05:34;;;;;;;2.19;1.37;;;;;;;18.63;41.67;100648.27;;;;-48
2021/04/26 05:08:34;;;;;;;2.45;1.71;;;;;;;18.64;41.20;100647.58;;;;-52
2021/04/26 05:11:34;;;;;;;1.82;1.51;;;;;;;18.64;41.56;100649.93;;;;-51
2021/04/26 05:14:34;;;;;;;2.37;1.49;;;;;;;18.64;41.59;100645.95;;;;-51
2021/04/26 05:17:34;;;;;;;3.38;1.50;;;;;;;18.64;41.64;100644.25;;;;-51
2021/04/26 05:20:34;;;;;;;1.66;1.48;;;;;;;18.64;41.62;100639.78;;;;-51
2021/04/26 05:23:34;;;;;;;1.91;1.49;;;;;;;18.65;41.64;100640.67;;;;-52
2021/04/26 05:26:34;;;;;;;2.05;1.51;;;;;;;18.65;41.68;100646.52;;;;-51
2021/04/26 05:29:34;;;;;;;2.72;1.43;;;;;;;18.67;41.62;100650.12;;;;-52
2021/04/26 05:32:34;;;;;;;2.62;1.42;;;;;;;18.68;41.59;100647.88;;;;-52
2021/04/26 05:35:34;;;;;;;1.55;1.45;;;;;;;18.70;41.68;100651.63;;;;-52
2021/04/26 05:38:34;;;;;;;1.86;1.40;;;;;;;18.72;41.72;100658.13;;;;-54
2021/04/26 05:41:34;;;;;;;2.93;1.40;;;;;;;18.74;41.73;100658.67;;;;-55
2021/04/26 05:44:34;;;;;;;2.04;1.40;;;;;;;18.76;41.71;100663.16;;;;-54
2021/04/26 05:47:34;;;;;;;1.81;1.33;;;;;;;18.78;41.71;100671.87;;;;-54
2021/04/26 05:50:34;;;;;;;1.41;1.31;;;;;;;18.81;41.68;100673.14;;;;-54
2021/04/26 05:53:34;;;;;;;1.97;1.41;;;;;;;18.84;41.68;100669.43;;;;-54
2021/04/26 05:56:34;;;;;;;1.47;1.37;;;;;;;18.85;41.68;100672.05;;;;-55
2021/04/26 05:59:34;;;;;;;2.01;1.45;;;;;;;18.87;41.65;100679.47;;;;-55
2021/04/26 06:02:34;;;;;;;1.69;1.30;;;;;;;18.88;41.65;100676.79;;;;-54
2021/04/26 06:05:34;;;;;;;2.97;1.39;;;;;;;18.90;41.68;100669.51;;;;-54
2021/04/26 06:08:34;;;;;;;2.09;1.38;;;;;;;18.91;41.66;100667.42;;;;-52
2021/04/26 06:11:34;;;;;;;1.40;1.30;;;;;;;18.92;41.62;100670.83;;;;-51
2021/04/26 06:14:34;;;;;;;1.47;1.34;;;;;;;18.93;41.65;100668.99;;;;-54
2021/04/26 06:17:34;;;;;;;2.47;1.45;;;;;;;18.94;41.65;100662.66;;;;-54
2021/04/26 06:20:34;;;;;;;1.65;1.38;;;;;;;18.95;41.60;100663.41;;;;-54
2021/04/26 06:23:34;;;;;;;1.41;1.31;;;;;;;18.95;41.62;100662.60;;;;-54
2021/04/26 06:26:34;;;;;;;1.51;1.39;;;;;;;18.95;41.58;100664.39;;;;-54
2021/04/26 06:29:34;;;;;;;1.63;1.35;;;;;;;18.96;41.61;100660.97;;;;-54
2021/04/26 06:32:34;;;;;;;1.73;1.47;;;;;;;18.96;41.60;100659.11;;;;-55
2021/04/26 06:35:34;;;;;;;1.40;1.30;;;;;;;18.96;41.61;100660.24;;;;-56
2021/04/26 06:38:34;;;;;;;1.37;1.27;;;;;;;18.97;41.57;100665.30;;;;-54
2021/04/26 06:41:34;;;;;;;1.77;1.48;;;;;;;18.97;41.55;100658.73;;;;-54
2021/04/26 06:44:34;;;;;;;1.54;1.44;;;;;;;18.97;41.58;100651.98;;;;-55
2021/04/26 06:47:34;;;;;;;1.43;1.30;;;;;;;18.96;41.55;100645.14;;;;-55
2021/04/26 06:50:34;;;;;;;1.62;1.32;;;;;;;18.96;41.60;100643.59;;;;-55
2021/04/26 06:53:34;;;;;;;1.55;1.40;;;;;;;18.96;41.60;100638.72;;;;-54
2021/04/26 06:56:34;;;;;;;1.41;1.31;;;;;;;18.96;41.59;100637.42;;;;-55
2021/04/26 06:59:34;;;;;;;1.55;1.37;;;;;;;18.95;41.57;100630.84;;;;-54
2021/04/26 07:02:34;;;;;;;1.61;1.49;;;;;;;18.94;41.61;100630.90;;;;-54
2021/04/26 07:05:34;;;;;;;1.35;1.25;;;;;;;18.95;41.58;100632.31;;;;-54
2021/04/26 07:08:34;;;;;;;1.71;1.37;;;;;;;18.95;41.59;100635.72;;;;-51
2021/04/26 07:11:34;;;;;;;1.61;1.40;;;;;;;18.95;41.58;100632.80;;;;-51
2021/04/26 07:14:34;;;;;;;1.59;1.30;;;;;;;18.94;41.60;100632.84;;;;-51
2021/04/26 07:17:35;;;;;;;1.87;1.46;;;;;;;18.94;41.60;100630.81;;;;-51
2021/04/26 07:20:34;;;;;;;1.40;1.30;;;;;;;18.94;41.55;100630.66;;;;-54
2021/04/26 07:23:34;;;;;;;1.95;1.31;;;;;;;18.93;41.62;100627.09;;;;-55
2021/04/26 07:26:34;;;;;;;1.39;1.29;;;;;;;18.93;41.62;100626.28;;;;-54
2021/04/26 07:29:34;;;;;;;1.45;1.35;;;;;;;18.92;41.60;100622.84;;;;-52
2021/04/26 07:32:34;;;;;;;1.57;1.31;;;;;;;18.92;41.62;100621.54;;;;-52
2021/04/26 07:35:34;;;;;;;1.95;1.37;;;;;;;18.91;41.64;100624.06;;;;-52
2021/04/26 07:38:34;;;;;;;1.47;1.37;;;;;;;18.90;41.61;100626.71;;;;-51
2021/04/26 07:41:34;;;;;;;1.33;1.23;;;;;;;18.91;41.60;100628.36;;;;-55
2021/04/26 07:44:34;;;;;;;5.60;1.46;;;;;;;18.92;41.67;100626.90;;;;-52
2021/04/26 07:47:34;;;;;;;1.72;1.37;;;;;;;18.93;41.92;100624.33;;;;-63
2021/04/26 07:50:34;;;;;;;2.19;1.40;;;;;;;18.96;42.02;100628.81;;;;-58
2021/04/26 07:53:34;;;;;;;3.07;1.50;;;;;;;19.00;42.21;100621.62;;;;-51
2021/04/26 07:56:35;;;;;;;2.40;1.40;;;;;;;19.04;42.29;100619.72;;;;-51
2021/04/26 07:59:34;;;;;;;1.33;1.23;;;;;;;19.08;42.35;100614.89;;;;-47
2021/04/26 08:02:34;;;;;;;3.14;1.43;;;;;;;19.15;42.59;100611.49;;;;-47
2021/04/26 08:05:34;;;;;;;1.45;1.35;;;;;;;19.20;42.69;100614.13;;;;-47
2021/04/26 08:08:34;;;;;;;1.43;1.33;;;;;;;19.24;42.63;100609.86;;;;-46
2021/04/26 08:11:34;;;;;;;7.52;1.64;;;;;;;19.28;42.33;100607.95;;;;-49
2021/04/26 08:14:34;;;;;;;5.75;1.87;;;;;;;19.27;42.00;100603.55;;;;-52
2021/04/26 08:17:34;;;;;;;3.14;1.86;;;;;;;19.28;41.79;100608.12;;;;-59
2021/04/26 08:20:35;;;;;;;4.23;1.89;;;;;;;19.31;41.87;100606.91;;;;-43
2021/04/26 08:23:35;;;;;;;3.16;1.89;;;;;;;19.33;41.93;100604.66;;;;-47
2021/04/26 08:26:34;;;;;;;4.19;1.67;;;;;;;19.35;41.78;100604.77;;;;-50
2021/04/26 08:29:34;;;;;;;3.27;1.90;;;;;;;19.37;41.96;100606.64;;;;-50
2021/04/26 08:32:34;;;;;;;3.53;1.65;;;;;;;19.39;41.72;100603.91;;;;-48
2021/04/26 08:35:34;;;;;;;3.80;1.86;;;;;;;19.41;41.41;100593.84;;;;-49
2021/04/26 08:38:34;;;;;;;6.79;1.99;;;;;;;19.45;41.85;100589.17;;;;-48
2021/04/26 08:41:34;;;;;;;7.24;1.82;;;;;;;19.48;41.83;100589.09;;;;-46
2021/04/26 08:44:34;;;;;;;10.59;1.90;;;;;;;19.52;42.42;100584.74;;;;-50
2021/04/26 08:47:34;;;;;;;7.14;2.02;;;;;;;19.58;42.59;100583.34;;;;-48
2021/04/26 08:50:34;;;;;;;4.73;2.01;;;;;;;19.61;42.18;100581.23;;;;-49
2021/04/26 08:53:34;;;;;;;4.69;1.97;;;;;;;19.61;41.24;100579.93;;;;-51
2021/04/26 08:56:34;;;;;;;8.20;1.87;;;;;;;19.66;41.83;100575.83;;;;-47
2021/04/26 08:59:35;;;;;;;5.13;1.78;;;;;;;19.72;41.70;100576.16;;;;-51
2021/04/26 09:02:34;;;;;;;3.37;1.83;;;;;;;19.74;41.47;100573.09;;;;-51
2021/04/26 09:05:34;;;;;;;4.25;1.87;;;;;;;19.76;41.29;100573.50;;;;-55
2021/04/26 09:08:34;;;;;;;4.49;1.85;;;;;;;19.78;41.04;100567.34;;;;-52
2021/04/26 09:11:34;;;;;;;3.48;1.66;;;;;;;19.79;40.96;100566.52;;;;-51
2021/04/26 09:14:34;;;;;;;3.97;1.81;;;;;;;19.80;41.13;100567.59;;;;-48
2021/04/26 09:17:34;;;;;;;4.37;1.73;;;;;;;19.85;41.41;100572.83;;;;-46
2021/04/26 09:20:34;;;;;;;4.65;1.71;;;;;;;19.85;41.17;100566.48;;;;-50
2021/04/26 09:23:34;;;;;;;5.53;1.85;;;;;;;19.88;41.49;100566.73;;;;-47
2021/04/26 09:26:34;;;;;;;2.79;1.81;;;;;;;19.92;41.61;100564.97;;;;-58
2021/04/26 09:29:34;;;;;;;3.05;1.82;;;;;;;19.95;41.79;100562.88;;;;-53
2021/04/26 09:32:34;;;;;;;3.57;1.59;;;;;;;19.99;41.83;100559.33;;;;-52
2021/04/26 09:35:34;;;;;;;4.58;1.61;;;;;;;19.99;41.83;100560.14;;;;-45
2021/04/26 09:38:34;;;;;;;4.81;1.89;;;;;;;20.01;41.50;100560.16;;;;-47
2021/04/26 09:41:34;;;;;;;4.76;1.93;;;;;;;20.00;41.27;100555.34;;;;-49
2021/04/26 09:44:34;;;;;;;7.66;1.89;;;;;;;20.03;41.22;100550.33;;;;-51
2021/04/26 09:47:34;;;;;;;8.47;1.97;;;;;;;20.06;41.33;100549.52;;;;-52
2021/04/26 09:50:34;;;;;;;4.58;1.64;;;;;;;20.09;41.46;100546.78;;;;-45
2021/04/26 09:53:35;;;;;;;2.09;1.53;;;;;;;20.12;41.70;100547.02;;;;-46
2021/04/26 09:56:36;;;;;;;3.54;1.71;;;;;;;20.14;41.61;100537.59;;;;-52
2021/04/26 09:59:34;;;;;;;3.04;1.61;;;;;;;20.18;41.81;100540.55;;;;-54
2021/04/26 10:02:34;;;;;;;9.79;1.91;;;;;;;20.19;41.86;100534.88;;;;-52
2021/04/26 10:05:34;;;;;;;3.10;1.81;;;;;;;20.20;41.83;100531.28;;;;-51
2021/04/26 10:08:34;;;;;;;3.87;1.61;;;;;;;20.22;41.77;100519.83;;;;-53
2021/04/26 10:11:34;;;;;;;3.34;1.63;;;;;;;20.25;41.86;100521.94;;;;-54
2021/04/26 10:14:33;;;;;;;2.75;1.67;;;;;;;20.26;41.91;100517.32;;;;-51
2021/04/26 10:17:35;;;;;;;7.90;1.81;;;;;;;20.26;41.93;100513.91;;;;-51
2021/04/26 10:20:34;;;;;;;4.82;1.60;;;;;;;20.28;41.80;100508.13;;;;-57
2021/04/26 10:23:34;;;;;;;3.77;1.70;;;;;;;20.30;42.01;100510.33;;;;-52
2021/04/26 10:26:34;;;;;;;3.86;1.77;;;;;;;20.32;41.89;100505.30;;;;-54
2021/04/26 10:29:34;;;;;;;2.26;1.50;;;;;;;20.34;41.97;100501.65;;;;-57
2021/04/26 10:32:34;;;;;;;3.11;1.70;;;;;;;20.36;42.03;100498.64;;;;-59
2021/04/26 10:35:34;;;;;;;3.85;1.61;;;;;;;20.33;41.37;100487.87;;;;-57
2021/04/26 10:38:34;;;;;;;7.34;1.95;;;;;;;20.32;41.59;100484.46;;;;-55
2021/04/26 10:41:34;;;;;;;2.09;1.70;;;;;;;20.31;40.82;100476.23;;;;-54
2021/04/26 10:44:34;;;;;;;2.69;1.65;;;;;;;20.29;41.04;100466.20;;;;-53
2021/04/26 10:47:34;;;;;;;4.16;1.66;;;;;;;20.30;40.77;100460.70;;;;-54
2021/04/26 10:50:34;;;;;;;3.62;1.66;;;;;;;20.30;40.59;100454.59;;;;-58
2021/04/26 10:53:34;;;;;;;2.97;1.59;;;;;;;20.32;40.84;100455.25;;;;-61
2021/04/26 10:56:34;;;;;;;2.31;1.67;;;;;;;20.31;40.57;100447.42;;;;-59
2021/04/26 10:59:34;;;;;;;4.55;1.59;;;;;;;20.31;40.72;100436.19;;;;-54
2021/04/26 11:02:34;;;;;;;2.79;1.77;;;;;;;20.33;40.58;100432.94;;;;-60
2021/04/26 11:05:34;;;;;;;3.33;1.70;;;;;;;20.33;40.53;100430.08;;;;-59
2021/04/26 11:08:36;;;;;;;1.87;1.51;;;;;;;20.35;40.56;100423.34;;;;-61
2021/04/26 11:11:36;;;;;;;3.13;1.68;;;;;;;20.36;40.57;100423.59;;;;-60
2021/04/26 11:14:34;;;;;;;5.10;1.74;;;;;;;20.32;40.52;100414.47;;;;-56
2021/04/26 11:17:34;;;;;;;1.88;1.60;;;;;;;20.27;40.00;100416.72;;;;-58
2021/04/26 11:20:34;;;;;;;3.67;1.62;;;;;;;20.24;39.93;100410.22;;;;-59
2021/04/26 11:23:34;;;;;;;3.68;1.79;;;;;;;20.22;40.18;100401.27;;;;-61
2021/04/26 11:26:34;;;;;;;6.22;1.93;;;;;;;20.23;40.31;100394.69;;;;-59
2021/04/26 11:29:34;;;;;;;5.87;1.57;;;;;;;20.26;40.31;100391.75;;;;-57
2021/04/26 11:32:34;;;;;;;2.15;1.59;;;;;;;20.28;40.31;100386.14;;;;-58
2021/04/26 11:35:34;;;;;;;3.19;1.65;;;;;;;20.30;40.37;100379.55;;;;-54
2021/04/26 11:38:34;;;;;;;2.17;1.49;;;;;;;20.30;40.40;100376.86;;;;-53
2021/04/26 11:41:34;;;;;;;2.05;1.55;;;;;;;20.32;40.38;100364.27;;;;-53
2021/04/26 11:44:34;;;;;;;2.56;1.60;;;;;;;20.32;40.47;100366.30;;;;-53
2021/04/26 11:47:34;;;;;;;2.34;1.59;;;;;;;20.32;40.39;100366.46;;;;-53
2021/04/26 11:50:34;;;;;;;3.33;1.59;;;;;;;20.33;40.49;100356.92;;;;-53
2021/04/26 11:53:34;;;;;;;2.98;1.50;;;;;;;20.34;40.45;100345.39;;;;-54
2021/04/26 11:56:34;;;;;;;2.11;1.55;;;;;;;20.32;40.56;100338.45;;;;-54
2021/04/26 11:59:34;;;;;;;2.81;1.51;;;;;;;20.34;40.44;100333.26;;;;-54
2021/04/26 12:02:35;;;;;;;1.75;1.50;;;;;;;20.35;40.50;100328.03;;;;-53
2021/04/26 12:05:34;;;;;;;3.65;1.60;;;;;;;20.34;40.53;100324.06;;;;-53
2021/04/26 12:08:34;;;;;;;1.89;1.50;;;;;;;20.35;40.50;100318.67;;;;-53
2021/04/26 12:11:34;;;;;;;1.64;1.50;;;;;;;20.35;40.57;100317.78;;;;-53
2021/04/26 12:14:34;;;;;;;2.27;1.58;;;;;;;20.35;40.57;100315.34;;;;-53
2021/04/26 12:17:34;;;;;;;2.19;1.60;;;;;;;20.36;40.54;100306.62;;;;-54
2021/04/26 12:20:34;;;;;;;2.15;1.51;;;;;;;20.35;40.60;100297.75;;;;-53
2021/04/26 12:23:34;;;;;;;1.93;1.57;;;;;;;20.35;40.59;100299.70;;;;-53
2021/04/26 12:26:34;;;;;;;3.16;1.60;;;;;;;20.37;41.01;100295.72;;;;-57
2021/04/26 12:29:34;;;;;;;5.14;1.61;;;;;;;20.39;41.48;100292.95;;;;-52
2021/04/26 12:32:34;;;;;;;1.97;1.47;;;;;;;20.41;41.62;100280.75;;;;-55
2021/04/26 12:35:34;;;;;;;4.10;1.53;;;;;;;20.44;41.83;100267.96;;;;-53
2021/04/26 12:38:35;;;;;;;1.51;1.40;;;;;;;20.47;41.77;100275.70;;;;-52
2021/04/26 12:41:34;;;;;;;3.18;1.61;;;;;;;20.46;41.04;100269.26;;;;-51
2021/04/26 12:44:34;;;;;;;5.05;1.55;;;;;;;20.43;41.06;100267.80;;;;-57
2021/04/26 12:47:34;;;;;;;3.49;1.76;;;;;;;20.43;41.45;100260.23;;;;-58
2021/04/26 12:50:35;;;;;;;5.15;1.71;;;;;;;20.43;41.33;100258.60;;;;-54
2021/04/26 12:53:34;;;;;;;2.99;1.65;;;;;;;20.42;41.12;100249.59;;;;-55
2021/04/26 12:56:34;;;;;;;2.45;1.65;;;;;;;20.42;41.24;100247.06;;;;-49
2021/04/26 12:59:34;;;;;;;2.04;1.50;;;;;;;20.42;40.75;100250.70;;;;-48
2021/04/26 13:02:34;;;;;;;3.69;1.69;;;;;;;20.42;40.83;100243.31;;;;-59
2021/04/26 13:05:33;;;;;;;2.67;1.56;;;;;;;20.42;40.93;100233.80;;;;-54
2021/04/26 13:08:34;;;;;;;2.11;1.60;;;;;;;20.43;40.83;100233.54;;;;-55
2021/04/26 13:11:34;;;;;;;2.72;1.52;;;;;;;20.44;41.12;100225.49;;;;-55
2021/04/26 13:14:35;;;;;;;3.51;1.85;;;;;;;20.42;40.85;100220.59;;;;-54
2021/04/26 13:17:34;;;;;;;4.30;1.88;;;;;;;20.40;40.63;100216.30;;;;-59
2021/04/26 13:20:33;;;;;;;4.55;1.60;;;;;;;20.41;40.39;100214.01;;;;-61
2021/04/26 13:23:34;;;;;;;7.26;1.87;;;;;;;20.41;40.77;100206.19;;;;-55
2021/04/26 13:26:35;;;;;;;3.36;1.74;;;;;;;20.42;40.91;100200.89;;;;-58
2021/04/26 13:29:34;;;;;;;2.82;1.59;;;;;;;20.43;41.17;100194.62;;;;-53
2021/04/26 13:32:34;;;;;;;2.73;1.55;;;;;;;20.46;41.06;100195.20;;;;-51
2021/04/26 13:35:34;;;;;;;2.32;1.55;;;;;;;20.48;41.26;100184.05;;;;-51
2021/04/26 13:38:34;;;;;;;3.19;1.57;;;;;;;20.51;41.44;100179.23;;;;-52
2021/04/26 13:41:34;;;;;;;2.51;1.50;;;;;;;20.51;41.24;100171.25;;;;-51
2021/04/26 13:44:33;;;;;;;2.33;1.49;;;;;;;20.53;41.58;100162.94;;;;-52
2021/04/26 13:47:34;;;;;;;3.27;1.50;;;;;;;20.54;41.39;100163.28;;;;-53
2021/04/26 13:50:34;;;;;;;3.79;1.73;;;;;;;20.56;41.55;100157.63;;;;-51
2021/04/26 13:53:33;;;;;;;4.01;1.45;;;;;;;20.55;41.55;100150.56;;;;-53
2021/04/26 13:56:35;;;;;;;2.12;1.49;;;;;;;20.58;41.64;100149.77;;;;-49
2021/04/26 13:59:34;;;;;;;2.41;1.56;;;;;;;20.58;41.62;100145.45;;;;-51
2021/04/26 14:02:34;;;;;;;1.91;1.40;;;;;;;20.59;41.58;100149.53;;;;-49
2021/04/26 14:05:34;;;;;;;4.18;1.60;;;;;;;20.61;41.76;100141.22;;;;-60
2021/04/26 14:08:33;;;;;;;1.48;1.38;;;;;;;20.63;41.82;100136.39;;;;-50
2021/04/26 14:11:34;;;;;;;2.33;1.50;;;;;;;20.63;41.45;100128.11;;;;-50
2021/04/26 14:14:34;;;;;;;3.39;1.59;;;;;;;20.60;41.20;100122.89;;;;-54
2021/04/26 14:17:34;;;;;;;4.01;1.58;;;;;;;20.61;41.31;100118.99;;;;-54
2021/04/26 14:20:34;;;;;;;5.23;1.67;;;;;;;20.62;41.25;100115.97;;;;-48
2021/04/26 14:23:34;;;;;;;4.97;1.61;;;;;;;20.61;41.27;100115.98;;;;-47
2021/04/26 14:26:34;;;;;;;2.65;1.69;;;;;;;20.64;41.63;100114.26;;;;-50
2021/04/26 14:29:34;;;;;;;2.77;1.51;;;;;;;20.64;41.59;100108.80;;;;-47
2021/04/26 14:32:34;;;;;;;1.50;1.40;;;;;;;20.65;41.68;100109.30;;;;-49
2021/04/26 14:35:35;;;;;;;2.84;1.53;;;;;;;20.65;41.66;100102.30;;;;-49
2021/04/26 14:38:34;;;;;;;3.01;1.50;;;;;;;20.65;41.70;100100.73;;;;-45
2021/04/26 14:41:33;;;;;;;2.83;1.50;;;;;;;20.65;41.73;100095.37;;;;-50
2021/04/26 14:44:34;;;;;;;2.79;1.44;;;;;;;20.67;41.81;100097.97;;;;-46
2021/04/26 14:47:33;;;;;;;1.67;1.45;;;;;;;20.68;41.84;100096.33;;;;-51
2021/04/26 14:50:34;;;;;;;1.89;1.55;;;;;;;20.70;41.92;100095.50;;;;-52
2021/04/26 14:53:34;;;;;;;1.99;1.53;;;;;;;20.70;41.74;100089.97;;;;-51
2021/04/26 14:56:33;;;;;;;2.37;1.53;;;;;;;20.70;41.73;100079.45;;;;-53
2021/04/26 14:59:34;;;;;;;1.83;1.59;;;;;;;20.71;41.84;100077.59;;;;-56
2021/04/26 15:02:34;;;;;;;1.99;1.39;;;;;;;20.71;41.72;100073.75;;;;-57
2021/04/26 15:05:34;;;;;;;3.13;1.46;;;;;;;20.72;41.94;100072.28;;;;-57
2021/04/26 15:08:34;;;;;;;2.69;1.42;;;;;;;20.72;42.01;100070.41;;;;-60
2021/04/26 15:11:33;;;;;;;1.81;1.30;;;;;;;20.74;41.97;100070.66;;;;-54
2021/04/26 15:14:33;;;;;;;2.20;1.50;;;;;;;20.75;42.05;100072.09;;;;-59
2021/04/26 15:17:34;;;;;;;2.69;1.51;;;;;;;20.75;41.96;100069.41;;;;-62
2021/04/26 15:20:33;;;;;;;5.43;1.55;;;;;;;20.75;41.79;100067.23;;;;-54
2021/04/26 15:23:34;;;;;;;3.47;1.51;;;;;;;20.74;41.52;100061.36;;;;-56
2021/04/26 15:26:33;;;;;;;2.14;1.45;;;;;;;20.73;41.40;100063.41;;;;-54
2021/04/26 15:29:33;;;;;;;2.45;1.51;;;;;;;20.72;41.37;100056.32;;;;-54
2021/04/26 15:32:34;;;;;;;1.53;1.30;;;;;;;20.71;41.19;100053.81;;;;-54
2021/04/26 15:35:33;;;;;;;2.59;1.33;;;;;;;20.71;41.23;100056.99;;;;-56
2021/04/26 15:38:34;;;;;;;2.20;1.31;;;;;;;20.69;41.15;100053.82;;;;-47
2021/04/26 15:41:34;;;;;;;1.52;1.41;;;;;;;20.68;41.18;100053.41;;;;-47
2021/04/26 15:44:34;;;;;;;2.74;1.64;;;;;;;20.65;41.28;100054.31;;;;-44
2021/04/26 15:47:34;;;;;;;5.10;1.65;;;;;;;20.60;40.72;100050.27;;;;-52
2021/04/26 15:50:34;;;;;;;3.69;1.45;;;;;;;20.60;40.83;100052.71;;;;-52
2021/04/26 15:53:34;;;;;;;2.97;1.43;;;;;;;20.63;41.33;100050.19;;;;-58
2021/04/26 15:56:34;;;;;;;2.49;1.57;;;;;;;20.65;41.44;100048.71;;;;-52
2021/04/26 15:59:34;;;;;;;2.08;1.35;;;;;;;20.66;41.51;100042.59;;;;-57
2021/04/26 16:02:34;;;;;;;1.70;1.40;;;;;;;20.68;41.62;100040.37;;;;-54
2021/04/26 16:05:34;;;;;;;4.04;1.40;;;;;;;20.70;41.71;100038.18;;;;-54
2021/04/26 16:08:33;;;;;;;1.40;1.26;;;;;;;20.71;41.63;100041.27;;;;-54
2021/04/26 16:11:34;;;;;;;2.05;1.37;;;;;;;20.71;41.77;100032.64;;;;-50
2021/04/26 16:14:34;;;;;;;2.19;1.30;;;;;;;20.73;41.95;100026.69;;;;-48
2021/04/26 16:17:34;;;;;;;1.53;1.42;;;;;;;20.73;41.87;100018.53;;;;-57
2021/04/26 16:20:34;;;;;;;1.85;1.45;;;;;;;20.73;41.97;100019.77;;;;-50
2021/04/26 16:23:33;;;;;;;2.26;1.41;;;;;;;20.74;42.02;100012.66;;;;-58
2021/04/26 16:26:34;;;;;;;2.59;1.36;;;;;;;20.74;42.00;100010.30;;;;-47
2021/04/26 16:29:34;;;;;;;2.07;1.41;;;;;;;20.75;42.07;100005.89;;;;-56
2021/04/26 16:32:33;;;;;;;1.83;1.42;;;;;;;20.76;42.26;100000.20;;;;-48
2021/04/26 16:35:35;;;;;;;2.27;1.43;;;;;;;20.76;42.15;99995.71;;;;-59
2021/04/26 16:38:34;;;;;;;1.65;1.29;;;;;;;20.76;42.21;99993.92;;;;-52
2021/04/26 16:41:33;;;;;;;2.15;1.40;;;;;;;20.76;41.90;99995.88;;;;-58
2021/04/26 16:44:34;;;;;;;2.31;1.34;;;;;;;20.77;41.99;99988.45;;;;-56
2021/04/26 16:47:33;;;;;;;1.37;1.27;;;;;;;20.76;41.99;99983.34;;;;-58